sensor_id;sensor_type;location;lat;lon;timestamp;P1;durP1;ratioP1;P2;durP2;ratioP2
31808;SDS011;18379;48.208;-1.518;2022-07-12T00:02:24;47.70;;;45.00;;
31808;SDS011;18379;48.208;-1.518;2022-07-12T00:07:25;47.77;;;44.70;;
31808;SDS011;18379;48.208;-1.518;2022-07-12T00:12:25;48.17;;;45.07;;
31808;SDS011;18379;48.208;-1.518;2022-07-12T00:17:26;51.88;;;48.67;;
31808;SDS011;18379;48.208;-1.518;2022-07-12T00:22:27;46.58;;;43.97;;
31808;SDS011;18379;48.208;-1.518;2022-07-12T00:27:28;45.60;;;42.97;;
31808;SDS011;18379;48.208;-1.518;2022-07-12T00:32:29;45.17;;;42.67;;
31808;SDS011;18379;48.208;-1.518;2022-07-12T00:37:30;45.00;;;42.50;;
31808;SDS011;18379;48.208;-1.518;2022-07-12T00:42:31;44.33;;;42.00;;
31808;SDS011;18379;48.208;-1.518;2022-07-12T00:47:36;44.57;;;42.07;;
31808;SDS011;18379;48.208;-1.518;2022-07-12T00:52:41;45.50;;;42.87;;
31808;SDS011;18379;48.208;-1.518;2022-07-12T00:57:44;47.33;;;44.53;;
31808;SDS011;18379;48.208;-1.518;2022-07-12T01:02:45;46.53;;;43.87;;
31808;SDS011;18379;48.208;-1.518;2022-07-12T01:07:47;53.60;;;50.17;;
31808;SDS011;18379;48.208;-1.518;2022-07-12T01:12:49;47.60;;;44.50;;
31808;SDS011;18379;48.208;-1.518;2022-07-12T01:17:50;46.33;;;43.67;;
31808;SDS011;18379;48.208;-1.518;2022-07-12T01:22:55;46.97;;;44.17;;
31808;SDS011;18379;48.208;-1.518;2022-07-12T01:27:58;48.30;;;45.50;;
31808;SDS011;18379;48.208;-1.518;2022-07-12T01:32:59;46.77;;;44.07;;
31808;SDS011;18379;48.208;-1.518;2022-07-12T01:38:00;44.50;;;41.90;;
31808;SDS011;18379;48.208;-1.518;2022-07-12T01:43:01;49.60;;;46.50;;
31808;SDS011;18379;48.208;-1.518;2022-07-12T01:48:03;44.50;;;41.90;;
31808;SDS011;18379;48.208;-1.518;2022-07-12T01:53:05;44.10;;;41.60;;
31808;SDS011;18379;48.208;-1.518;2022-07-12T01:58:07;43.97;;;41.43;;
31808;SDS011;18379;48.208;-1.518;2022-07-12T02:03:09;44.63;;;41.97;;
31808;SDS011;18379;48.208;-1.518;2022-07-12T02:08:10;44.87;;;42.20;;
31808;SDS011;18379;48.208;-1.518;2022-07-12T02:13:10;44.33;;;41.90;;
31808;SDS011;18379;48.208;-1.518;2022-07-12T02:18:12;45.87;;;43.27;;
31808;SDS011;18379;48.208;-1.518;2022-07-12T02:23:12;45.70;;;43.13;;
31808;SDS011;18379;48.208;-1.518;2022-07-12T02:28:13;46.00;;;43.30;;
31808;SDS011;18379;48.208;-1.518;2022-07-12T02:33:14;49.70;;;46.60;;
31808;SDS011;18379;48.208;-1.518;2022-07-12T02:38:15;47.03;;;43.87;;
31808;SDS011;18379;48.208;-1.518;2022-07-12T02:43:16;46.30;;;43.60;;
31808;SDS011;18379;48.208;-1.518;2022-07-12T02:48:17;46.63;;;43.83;;
31808;SDS011;18379;48.208;-1.518;2022-07-12T02:53:18;52.33;;;48.97;;
31808;SDS011;18379;48.208;-1.518;2022-07-12T02:58:19;46.40;;;43.70;;
31808;SDS011;18379;48.208;-1.518;2022-07-12T03:03:20;46.47;;;43.70;;
31808;SDS011;18379;48.208;-1.518;2022-07-12T03:08:20;46.43;;;43.73;;
31808;SDS011;18379;48.208;-1.518;2022-07-12T03:13:21;46.67;;;43.80;;
31808;SDS011;18379;48.208;-1.518;2022-07-12T03:18:22;46.70;;;43.80;;
31808;SDS011;18379;48.208;-1.518;2022-07-12T03:23:23;49.23;;;46.00;;
31808;SDS011;18379;48.208;-1.518;2022-07-12T03:28:24;49.00;;;45.90;;
31808;SDS011;18379;48.208;-1.518;2022-07-12T03:33:26;57.30;;;53.40;;
31808;SDS011;18379;48.208;-1.518;2022-07-12T03:38:26;55.13;;;51.43;;
31808;SDS011;18379;48.208;-1.518;2022-07-12T03:43:27;46.33;;;43.70;;
31808;SDS011;18379;48.208;-1.518;2022-07-12T03:48:28;45.80;;;43.00;;
31808;SDS011;18379;48.208;-1.518;2022-07-12T03:53:29;45.43;;;42.50;;
31808;SDS011;18379;48.208;-1.518;2022-07-12T03:58:30;44.07;;;41.53;;
31808;SDS011;18379;48.208;-1.518;2022-07-12T04:03:30;43.20;;;40.67;;
31808;SDS011;18379;48.208;-1.518;2022-07-12T04:08:31;43.47;;;40.70;;
31808;SDS011;18379;48.208;-1.518;2022-07-12T04:13:32;43.87;;;41.37;;
31808;SDS011;18379;48.208;-1.518;2022-07-12T04:18:33;43.93;;;41.33;;
31808;SDS011;18379;48.208;-1.518;2022-07-12T04:23:34;44.33;;;41.63;;
31808;SDS011;18379;48.208;-1.518;2022-07-12T04:28:35;43.47;;;41.07;;
31808;SDS011;18379;48.208;-1.518;2022-07-12T04:33:36;43.80;;;41.40;;
31808;SDS011;18379;48.208;-1.518;2022-07-12T04:38:36;43.90;;;41.23;;
31808;SDS011;18379;48.208;-1.518;2022-07-12T04:43:37;44.27;;;41.60;;
31808;SDS011;18379;48.208;-1.518;2022-07-12T04:48:38;44.03;;;41.47;;
31808;SDS011;18379;48.208;-1.518;2022-07-12T04:53:39;45.00;;;42.17;;
31808;SDS011;18379;48.208;-1.518;2022-07-12T04:58:40;43.83;;;41.43;;
31808;SDS011;18379;48.208;-1.518;2022-07-12T05:03:40;44.80;;;42.27;;
31808;SDS011;18379;48.208;-1.518;2022-07-12T05:08:41;44.23;;;41.73;;
31808;SDS011;18379;48.208;-1.518;2022-07-12T05:13:42;45.03;;;42.23;;
31808;SDS011;18379;48.208;-1.518;2022-07-12T05:18:43;45.40;;;42.63;;
31808;SDS011;18379;48.208;-1.518;2022-07-12T05:23:43;46.10;;;43.40;;
31808;SDS011;18379;48.208;-1.518;2022-07-12T05:28:45;47.63;;;44.57;;
31808;SDS011;18379;48.208;-1.518;2022-07-12T05:33:45;46.50;;;43.47;;
31808;SDS011;18379;48.208;-1.518;2022-07-12T05:38:47;46.33;;;43.30;;
31808;SDS011;18379;48.208;-1.518;2022-07-12T05:43:47;49.17;;;45.23;;
31808;SDS011;18379;48.208;-1.518;2022-07-12T05:48:48;50.33;;;46.87;;
31808;SDS011;18379;48.208;-1.518;2022-07-12T05:53:49;47.33;;;43.17;;
31808;SDS011;18379;48.208;-1.518;2022-07-12T05:58:50;46.30;;;43.10;;
31808;SDS011;18379;48.208;-1.518;2022-07-12T06:03:51;46.90;;;43.47;;
31808;SDS011;18379;48.208;-1.518;2022-07-12T06:08:52;57.03;;;52.67;;
31808;SDS011;18379;48.208;-1.518;2022-07-12T06:13:53;57.57;;;53.50;;
31808;SDS011;18379;48.208;-1.518;2022-07-12T06:18:54;54.37;;;50.43;;
31808;SDS011;18379;48.208;-1.518;2022-07-12T06:23:54;55.67;;;51.60;;
31808;SDS011;18379;48.208;-1.518;2022-07-12T06:28:55;56.03;;;52.13;;
31808;SDS011;18379;48.208;-1.518;2022-07-12T06:33:56;55.10;;;51.13;;
31808;SDS011;18379;48.208;-1.518;2022-07-12T06:38:57;57.10;;;52.80;;
31808;SDS011;18379;48.208;-1.518;2022-07-12T06:43:57;56.57;;;52.73;;
31808;SDS011;18379;48.208;-1.518;2022-07-12T06:48:58;50.77;;;47.37;;
31808;SDS011;18379;48.208;-1.518;2022-07-12T06:53:59;48.70;;;45.27;;
31808;SDS011;18379;48.208;-1.518;2022-07-12T06:59:00;47.73;;;44.70;;
31808;SDS011;18379;48.208;-1.518;2022-07-12T07:04:01;44.93;;;42.03;;
31808;SDS011;18379;48.208;-1.518;2022-07-12T07:09:01;43.93;;;41.53;;
31808;SDS011;18379;48.208;-1.518;2022-07-12T07:14:07;44.50;;;42.00;;
31808;SDS011;18379;48.208;-1.518;2022-07-12T07:19:08;44.90;;;42.10;;
31808;SDS011;18379;48.208;-1.518;2022-07-12T07:24:09;43.93;;;41.53;;
31808;SDS011;18379;48.208;-1.518;2022-07-12T07:29:10;44.40;;;41.73;;
31808;SDS011;18379;48.208;-1.518;2022-07-12T07:34:29;46.37;;;43.67;;
31808;SDS011;18379;48.208;-1.518;2022-07-12T07:39:30;44.97;;;42.28;;
31808;SDS011;18379;48.208;-1.518;2022-07-12T07:44:31;44.93;;;42.50;;
31808;SDS011;18379;48.208;-1.518;2022-07-12T07:49:33;45.15;;;42.65;;
31808;SDS011;18379;48.208;-1.518;2022-07-12T07:54:34;45.13;;;42.42;;
31808;SDS011;18379;48.208;-1.518;2022-07-12T07:59:35;45.47;;;42.45;;
31808;SDS011;18379;48.208;-1.518;2022-07-12T08:04:36;45.08;;;42.50;;
31808;SDS011;18379;48.208;-1.518;2022-07-12T08:09:37;45.72;;;43.13;;
31808;SDS011;18379;48.208;-1.518;2022-07-12T08:14:38;45.45;;;42.60;;
31808;SDS011;18379;48.208;-1.518;2022-07-12T08:19:38;45.65;;;42.70;;
31808;SDS011;18379;48.208;-1.518;2022-07-12T08:24:39;45.08;;;42.40;;
31808;SDS011;18379;48.208;-1.518;2022-07-12T08:29:40;45.53;;;42.42;;
31808;SDS011;18379;48.208;-1.518;2022-07-12T08:34:41;47.35;;;44.03;;
31808;SDS011;18379;48.208;-1.518;2022-07-12T08:39:42;48.75;;;45.75;;
31808;SDS011;18379;48.208;-1.518;2022-07-12T08:44:43;52.55;;;48.97;;
31808;SDS011;18379;48.208;-1.518;2022-07-12T08:50:08;52.95;;;49.72;;
31808;SDS011;18379;48.208;-1.518;2022-07-12T09:00:21;57.28;;;53.58;;
31808;SDS011;18379;48.208;-1.518;2022-07-12T09:05:23;57.22;;;53.28;;
31808;SDS011;18379;48.208;-1.518;2022-07-12T09:10:25;56.47;;;52.85;;
31808;SDS011;18379;48.208;-1.518;2022-07-12T09:15:26;55.53;;;52.10;;
31808;SDS011;18379;48.208;-1.518;2022-07-12T09:20:31;59.10;;;54.95;;
31808;SDS011;18379;48.208;-1.518;2022-07-12T09:25:34;46.75;;;43.95;;
31808;SDS011;18379;48.208;-1.518;2022-07-12T09:30:37;46.40;;;43.90;;
31808;SDS011;18379;48.208;-1.518;2022-07-12T09:41:15;50.15;;;47.28;;
31808;SDS011;18379;48.208;-1.518;2022-07-12T09:46:17;57.22;;;53.67;;
31808;SDS011;18379;48.208;-1.518;2022-07-12T09:51:18;57.33;;;53.88;;
31808;SDS011;18379;48.208;-1.518;2022-07-12T09:56:21;57.25;;;53.83;;
31808;SDS011;18379;48.208;-1.518;2022-07-12T10:01:23;57.88;;;54.17;;
31808;SDS011;18379;48.208;-1.518;2022-07-12T10:06:25;58.75;;;55.15;;
31808;SDS011;18379;48.208;-1.518;2022-07-12T10:11:28;59.03;;;55.13;;
31808;SDS011;18379;48.208;-1.518;2022-07-12T10:16:29;53.53;;;50.42;;
31808;SDS011;18379;48.208;-1.518;2022-07-12T10:21:38;48.42;;;45.63;;
31808;SDS011;18379;48.208;-1.518;2022-07-12T10:26:40;49.08;;;46.17;;
31808;SDS011;18379;48.208;-1.518;2022-07-12T10:31:41;48.60;;;45.90;;
31808;SDS011;18379;48.208;-1.518;2022-07-12T10:47:07;48.50;;;45.65;;
31808;SDS011;18379;48.208;-1.518;2022-07-12T10:57:10;48.70;;;45.90;;
31808;SDS011;18379;48.208;-1.518;2022-07-12T11:02:11;49.00;;;46.00;;
31808;SDS011;18379;48.208;-1.518;2022-07-12T11:07:12;49.65;;;46.83;;
31808;SDS011;18379;48.208;-1.518;2022-07-12T11:12:19;57.97;;;54.63;;
31808;SDS011;18379;48.208;-1.518;2022-07-12T11:17:27;57.90;;;54.55;;
31808;SDS011;18379;48.208;-1.518;2022-07-12T11:22:30;49.67;;;46.80;;
31808;SDS011;18379;48.208;-1.518;2022-07-12T11:27:31;48.25;;;45.45;;
31808;SDS011;18379;48.208;-1.518;2022-07-12T11:32:35;48.25;;;45.45;;
31808;SDS011;18379;48.208;-1.518;2022-07-12T11:37:46;48.28;;;45.45;;
31808;SDS011;18379;48.208;-1.518;2022-07-12T11:42:58;57.13;;;53.70;;
31808;SDS011;18379;48.208;-1.518;2022-07-12T11:48:00;51.35;;;48.33;;
31808;SDS011;18379;48.208;-1.518;2022-07-12T11:53:03;48.67;;;45.88;;
31808;SDS011;18379;48.208;-1.518;2022-07-12T11:58:04;48.60;;;45.88;;
31808;SDS011;18379;48.208;-1.518;2022-07-12T12:03:05;49.10;;;46.40;;
31808;SDS011;18379;48.208;-1.518;2022-07-12T12:08:07;48.30;;;45.60;;
31808;SDS011;18379;48.208;-1.518;2022-07-12T12:13:14;48.40;;;45.60;;
31808;SDS011;18379;48.208;-1.518;2022-07-12T12:18:16;56.47;;;53.30;;
31808;SDS011;18379;48.208;-1.518;2022-07-12T12:23:18;56.53;;;53.25;;
31808;SDS011;18379;48.208;-1.518;2022-07-12T12:28:19;58.08;;;54.63;;
31808;SDS011;18379;48.208;-1.518;2022-07-12T12:33:39;57.80;;;54.30;;
31808;SDS011;18379;48.208;-1.518;2022-07-12T12:38:43;51.05;;;48.20;;
31808;SDS011;18379;48.208;-1.518;2022-07-12T12:43:44;54.40;;;51.13;;
31808;SDS011;18379;48.208;-1.518;2022-07-12T12:48:46;55.50;;;52.03;;
31808;SDS011;18379;48.208;-1.518;2022-07-12T12:53:54;57.10;;;53.53;;
31808;SDS011;18379;48.208;-1.518;2022-07-12T12:58:59;55.65;;;52.47;;
31808;SDS011;18379;48.208;-1.518;2022-07-12T13:04:00;52.88;;;49.58;;
31808;SDS011;18379;48.208;-1.518;2022-07-12T13:09:01;49.33;;;46.60;;
31808;SDS011;18379;48.208;-1.518;2022-07-12T13:14:01;48.90;;;46.10;;
31808;SDS011;18379;48.208;-1.518;2022-07-12T13:19:03;49.15;;;46.35;;
31808;SDS011;18379;48.208;-1.518;2022-07-12T13:24:05;48.47;;;45.78;;
31808;SDS011;18379;48.208;-1.518;2022-07-12T13:29:06;47.97;;;45.35;;
31808;SDS011;18379;48.208;-1.518;2022-07-12T13:34:07;48.15;;;45.53;;
31808;SDS011;18379;48.208;-1.518;2022-07-12T13:39:08;48.65;;;45.85;;
31808;SDS011;18379;48.208;-1.518;2022-07-12T13:44:27;57.50;;;54.05;;
31808;SDS011;18379;48.208;-1.518;2022-07-12T13:49:28;58.03;;;54.55;;
31808;SDS011;18379;48.208;-1.518;2022-07-12T13:54:29;51.45;;;48.47;;
31808;SDS011;18379;48.208;-1.518;2022-07-12T13:59:31;49.78;;;46.97;;
31808;SDS011;18379;48.208;-1.518;2022-07-12T14:04:31;48.45;;;45.55;;
31808;SDS011;18379;48.208;-1.518;2022-07-12T14:09:32;48.85;;;46.05;;
31808;SDS011;18379;48.208;-1.518;2022-07-12T14:14:33;50.75;;;47.88;;
31808;SDS011;18379;48.208;-1.518;2022-07-12T14:19:53;57.70;;;54.25;;
31808;SDS011;18379;48.208;-1.518;2022-07-12T14:24:53;57.53;;;54.03;;
31808;SDS011;18379;48.208;-1.518;2022-07-12T14:29:54;56.95;;;53.53;;
31808;SDS011;18379;48.208;-1.518;2022-07-12T14:34:55;58.20;;;54.72;;
31808;SDS011;18379;48.208;-1.518;2022-07-12T14:39:56;57.13;;;53.53;;
31808;SDS011;18379;48.208;-1.518;2022-07-12T14:44:57;57.67;;;54.13;;
31808;SDS011;18379;48.208;-1.518;2022-07-12T14:50:00;57.95;;;54.45;;
31808;SDS011;18379;48.208;-1.518;2022-07-12T14:55:06;47.92;;;45.33;;
31808;SDS011;18379;48.208;-1.518;2022-07-12T15:00:22;49.28;;;46.38;;
31808;SDS011;18379;48.208;-1.518;2022-07-12T15:05:43;48.22;;;45.53;;
31808;SDS011;18379;48.208;-1.518;2022-07-12T15:16:33;56.00;;;52.72;;
31808;SDS011;18379;48.208;-1.518;2022-07-12T15:22:04;58.55;;;55.10;;
31808;SDS011;18379;48.208;-1.518;2022-07-12T15:27:28;58.92;;;55.47;;
31808;SDS011;18379;48.208;-1.518;2022-07-12T15:32:42;48.28;;;45.63;;
31808;SDS011;18379;48.208;-1.518;2022-07-12T15:38:19;48.90;;;45.97;;
31808;SDS011;18379;48.208;-1.518;2022-07-12T15:43:24;58.08;;;54.65;;
31808;SDS011;18379;48.208;-1.518;2022-07-12T15:48:25;57.88;;;54.33;;
31808;SDS011;18379;48.208;-1.518;2022-07-12T15:53:37;48.88;;;46.05;;
31808;SDS011;18379;48.208;-1.518;2022-07-12T15:58:45;47.50;;;44.88;;
31808;SDS011;18379;48.208;-1.518;2022-07-12T16:03:54;57.85;;;53.97;;
31808;SDS011;18379;48.208;-1.518;2022-07-12T16:09:03;48.15;;;45.45;;
31808;SDS011;18379;48.208;-1.518;2022-07-12T16:14:04;47.90;;;45.28;;
31808;SDS011;18379;48.208;-1.518;2022-07-12T16:19:05;48.50;;;45.50;;
31808;SDS011;18379;48.208;-1.518;2022-07-12T16:24:06;48.35;;;45.65;;
31808;SDS011;18379;48.208;-1.518;2022-07-12T16:29:07;48.10;;;45.40;;
31808;SDS011;18379;48.208;-1.518;2022-07-12T16:34:11;48.90;;;46.22;;
31808;SDS011;18379;48.208;-1.518;2022-07-12T16:39:12;47.72;;;45.13;;
31808;SDS011;18379;48.208;-1.518;2022-07-12T16:44:13;50.00;;;46.90;;
31808;SDS011;18379;48.208;-1.518;2022-07-12T16:49:14;48.72;;;46.05;;
31808;SDS011;18379;48.208;-1.518;2022-07-12T16:54:14;49.25;;;46.45;;
31808;SDS011;18379;48.208;-1.518;2022-07-12T16:59:15;49.47;;;46.75;;
31808;SDS011;18379;48.208;-1.518;2022-07-12T17:04:16;49.83;;;46.92;;
31808;SDS011;18379;48.208;-1.518;2022-07-12T17:09:17;50.35;;;47.25;;
31808;SDS011;18379;48.208;-1.518;2022-07-12T17:14:18;50.25;;;47.35;;
31808;SDS011;18379;48.208;-1.518;2022-07-12T17:19:20;49.97;;;47.17;;
31808;SDS011;18379;48.208;-1.518;2022-07-12T17:24:21;49.47;;;46.78;;
31808;SDS011;18379;48.208;-1.518;2022-07-12T17:29:22;52.67;;;49.42;;
31808;SDS011;18379;48.208;-1.518;2022-07-12T17:34:22;52.33;;;49.35;;
31808;SDS011;18379;48.208;-1.518;2022-07-12T17:39:24;50.67;;;47.72;;
31808;SDS011;18379;48.208;-1.518;2022-07-12T17:44:25;50.67;;;47.78;;
31808;SDS011;18379;48.208;-1.518;2022-07-12T17:49:26;49.78;;;46.97;;
31808;SDS011;18379;48.208;-1.518;2022-07-12T17:54:26;51.78;;;48.65;;
31808;SDS011;18379;48.208;-1.518;2022-07-12T17:59:29;52.05;;;49.05;;
31808;SDS011;18379;48.208;-1.518;2022-07-12T18:04:29;51.05;;;48.15;;
31808;SDS011;18379;48.208;-1.518;2022-07-12T18:09:30;49.90;;;46.90;;
31808;SDS011;18379;48.208;-1.518;2022-07-12T18:14:31;50.83;;;47.85;;
31808;SDS011;18379;48.208;-1.518;2022-07-12T18:19:45;49.10;;;46.28;;
31808;SDS011;18379;48.208;-1.518;2022-07-12T18:24:46;49.63;;;46.78;;
31808;SDS011;18379;48.208;-1.518;2022-07-12T18:29:47;49.65;;;46.88;;
31808;SDS011;18379;48.208;-1.518;2022-07-12T18:34:48;49.47;;;46.67;;
31808;SDS011;18379;48.208;-1.518;2022-07-12T18:39:49;49.80;;;47.00;;
31808;SDS011;18379;48.208;-1.518;2022-07-12T18:44:53;51.38;;;48.25;;
31808;SDS011;18379;48.208;-1.518;2022-07-12T18:49:56;50.13;;;46.97;;
31808;SDS011;18379;48.208;-1.518;2022-07-12T18:54:56;50.33;;;47.33;;
31808;SDS011;18379;48.208;-1.518;2022-07-12T18:59:58;49.85;;;46.88;;
31808;SDS011;18379;48.208;-1.518;2022-07-12T19:04:59;50.08;;;47.15;;
31808;SDS011;18379;48.208;-1.518;2022-07-12T19:10:01;48.38;;;45.67;;
31808;SDS011;18379;48.208;-1.518;2022-07-12T19:15:04;48.00;;;45.20;;
31808;SDS011;18379;48.208;-1.518;2022-07-12T19:20:05;47.13;;;44.60;;
31808;SDS011;18379;48.208;-1.518;2022-07-12T19:25:07;47.65;;;45.00;;
31808;SDS011;18379;48.208;-1.518;2022-07-12T19:30:08;47.72;;;45.03;;
31808;SDS011;18379;48.208;-1.518;2022-07-12T19:35:09;48.22;;;45.50;;
31808;SDS011;18379;48.208;-1.518;2022-07-12T19:40:11;47.67;;;44.92;;
31808;SDS011;18379;48.208;-1.518;2022-07-12T19:45:12;47.53;;;44.92;;
31808;SDS011;18379;48.208;-1.518;2022-07-12T19:50:13;48.13;;;45.13;;
31808;SDS011;18379;48.208;-1.518;2022-07-12T19:55:14;48.40;;;45.63;;
31808;SDS011;18379;48.208;-1.518;2022-07-12T20:00:15;48.80;;;46.05;;
31808;SDS011;18379;48.208;-1.518;2022-07-12T20:05:16;49.65;;;46.78;;
31808;SDS011;18379;48.208;-1.518;2022-07-12T20:10:17;53.22;;;50.10;;
31808;SDS011;18379;48.208;-1.518;2022-07-12T20:15:18;50.42;;;47.38;;
31808;SDS011;18379;48.208;-1.518;2022-07-12T20:20:20;55.45;;;52.17;;
31808;SDS011;18379;48.208;-1.518;2022-07-12T20:25:21;51.28;;;47.85;;
31808;SDS011;18379;48.208;-1.518;2022-07-12T20:30:23;50.33;;;47.30;;
31808;SDS011;18379;48.208;-1.518;2022-07-12T20:35:23;50.03;;;47.08;;
31808;SDS011;18379;48.208;-1.518;2022-07-12T20:40:24;51.88;;;48.83;;
31808;SDS011;18379;48.208;-1.518;2022-07-12T20:45:25;50.33;;;47.42;;
31808;SDS011;18379;48.208;-1.518;2022-07-12T20:50:26;53.33;;;50.10;;
31808;SDS011;18379;48.208;-1.518;2022-07-12T20:55:27;50.40;;;47.50;;
31808;SDS011;18379;48.208;-1.518;2022-07-12T21:00:28;50.17;;;47.28;;
31808;SDS011;18379;48.208;-1.518;2022-07-12T21:05:29;51.53;;;48.35;;
31808;SDS011;18379;48.208;-1.518;2022-07-12T21:10:30;50.20;;;47.10;;
31808;SDS011;18379;48.208;-1.518;2022-07-12T21:15:33;47.35;;;44.75;;
31808;SDS011;18379;48.208;-1.518;2022-07-12T21:20:35;47.35;;;44.75;;
31808;SDS011;18379;48.208;-1.518;2022-07-12T21:25:36;47.20;;;44.70;;
31808;SDS011;18379;48.208;-1.518;2022-07-12T21:30:38;47.67;;;44.88;;
31808;SDS011;18379;48.208;-1.518;2022-07-12T21:35:39;47.42;;;44.92;;
31808;SDS011;18379;48.208;-1.518;2022-07-12T21:40:40;51.33;;;48.33;;
31808;SDS011;18379;48.208;-1.518;2022-07-12T21:45:41;46.90;;;44.33;;
31808;SDS011;18379;48.208;-1.518;2022-07-12T21:50:42;47.88;;;45.25;;
31808;SDS011;18379;48.208;-1.518;2022-07-12T21:55:43;47.42;;;44.75;;
31808;SDS011;18379;48.208;-1.518;2022-07-12T22:00:44;47.75;;;44.97;;
31808;SDS011;18379;48.208;-1.518;2022-07-12T22:05:45;48.13;;;45.38;;
31808;SDS011;18379;48.208;-1.518;2022-07-12T22:10:46;49.28;;;46.40;;
31808;SDS011;18379;48.208;-1.518;2022-07-12T22:15:48;50.00;;;46.85;;
31808;SDS011;18379;48.208;-1.518;2022-07-12T22:20:49;52.50;;;49.40;;
31808;SDS011;18379;48.208;-1.518;2022-07-12T22:25:50;52.97;;;49.40;;
31808;SDS011;18379;48.208;-1.518;2022-07-12T22:30:51;50.05;;;46.80;;
31808;SDS011;18379;48.208;-1.518;2022-07-12T22:35:52;50.50;;;47.20;;
31808;SDS011;18379;48.208;-1.518;2022-07-12T22:40:53;49.45;;;46.33;;
31808;SDS011;18379;48.208;-1.518;2022-07-12T22:45:54;49.42;;;46.30;;
31808;SDS011;18379;48.208;-1.518;2022-07-12T22:50:54;49.22;;;45.97;;
31808;SDS011;18379;48.208;-1.518;2022-07-12T22:56:14;47.65;;;44.63;;
31808;SDS011;18379;48.208;-1.518;2022-07-12T23:01:14;53.10;;;49.60;;
31808;SDS011;18379;48.208;-1.518;2022-07-12T23:06:15;51.78;;;48.47;;
31808;SDS011;18379;48.208;-1.518;2022-07-12T23:11:17;48.63;;;45.60;;
31808;SDS011;18379;48.208;-1.518;2022-07-12T23:16:18;48.77;;;46.00;;
31808;SDS011;18379;48.208;-1.518;2022-07-12T23:21:18;50.55;;;47.20;;
31808;SDS011;18379;48.208;-1.518;2022-07-12T23:26:19;50.83;;;47.63;;
31808;SDS011;18379;48.208;-1.518;2022-07-12T23:31:20;50.85;;;47.65;;
31808;SDS011;18379;48.208;-1.518;2022-07-12T23:36:21;49.72;;;46.75;;
31808;SDS011;18379;48.208;-1.518;2022-07-12T23:41:22;49.28;;;46.22;;
31808;SDS011;18379;48.208;-1.518;2022-07-12T23:46:23;51.65;;;48.00;;
31808;SDS011;18379;48.208;-1.518;2022-07-12T23:51:23;50.00;;;46.80;;
31808;SDS011;18379;48.208;-1.518;2022-07-12T23:56:25;50.03;;;46.63;;
